sensor_id;sensor_type;location;lat;lon;timestamp;pressure;altitude;pressure_sealevel;temperature;humidity
71907;BME280;59781;52.090;5.030;2022-12-18T09:24:39;102568.34;;;-3.53;89.44
71907;BME280;59781;52.090;5.030;2022-12-18T09:27:05;102560.06;;;-3.73;88.65
71907;BME280;59781;52.090;5.030;2022-12-18T09:29:32;102543.25;;;-3.34;87.92
71907;BME280;59781;52.090;5.030;2022-12-18T09:31:57;102549.84;;;-3.18;87.75
71907;BME280;59781;52.090;5.030;2022-12-18T09:34:23;102541.34;;;-3.29;88.17
71907;BME280;59781;52.090;5.030;2022-12-18T09:36:50;102528.38;;;-3.04;86.59
71907;BME280;59781;52.090;5.030;2022-12-18T09:39:16;102542.13;;;-2.93;85.86
71907;BME280;59781;52.090;5.030;2022-12-18T09:41:51;102548.16;;;-3.20;87.17
71907;BME280;59781;52.090;5.030;2022-12-18T09:44:41;102545.09;;;-3.37;87.55
71907;BME280;59781;52.090;5.030;2022-12-18T09:47:30;102544.75;;;-3.24;87.35
71907;BME280;59781;52.090;5.030;2022-12-18T09:50:21;102528.25;;;-2.99;87.63
71907;BME280;59781;52.090;5.030;2022-12-18T09:53:34;102521.91;;;-3.25;87.80
71907;BME280;59781;52.090;5.030;2022-12-18T09:56:05;102511.03;;;-3.45;88.40
71907;BME280;59781;52.090;5.030;2022-12-18T09:58:39;102511.22;;;-3.19;88.46
71907;BME280;59781;52.090;5.030;2022-12-18T10:01:21;102525.53;;;-3.29;88.12
71907;BME280;59781;52.090;5.030;2022-12-18T10:03:48;102532.16;;;-2.81;86.85
71907;BME280;59781;52.090;5.030;2022-12-18T10:09:42;102526.56;;;-3.02;86.31
71907;BME280;59781;52.090;5.030;2022-12-18T10:12:56;102529.00;;;-2.94;86.09
71907;BME280;59781;52.090;5.030;2022-12-18T10:20:56;102515.16;;;-2.71;85.38
71907;BME280;59781;52.090;5.030;2022-12-18T10:23:51;102516.22;;;-2.78;85.92
71907;BME280;59781;52.090;5.030;2022-12-18T12:21:41;102344.13;;;-1.09;81.22
71907;BME280;59781;52.090;5.030;2022-12-18T12:33:35;102333.63;;;-1.10;81.61
71907;BME280;59781;52.090;5.030;2022-12-18T12:36:20;102324.09;;;-1.14;82.23
71907;BME280;59781;52.090;5.030;2022-12-18T12:39:01;102311.41;;;-1.28;82.44
71907;BME280;59781;52.090;5.030;2022-12-18T12:41:35;102308.38;;;-1.18;82.21
71907;BME280;59781;52.090;5.030;2022-12-18T12:44:32;102313.72;;;-0.97;81.27
71907;BME280;59781;52.090;5.030;2022-12-18T12:47:16;102303.69;;;-0.89;81.71
71907;BME280;59781;52.090;5.030;2022-12-18T12:51:09;102304.38;;;-0.84;79.63
71907;BME280;59781;52.090;5.030;2022-12-18T12:59:15;102306.16;;;-1.30;81.97
71907;BME280;59781;52.090;5.030;2022-12-18T13:13:04;102292.38;;;-0.93;81.28
71907;BME280;59781;52.090;5.030;2022-12-18T13:15:34;102295.94;;;-0.94;81.01
71907;BME280;59781;52.090;5.030;2022-12-18T13:20:38;102287.94;;;-0.92;80.86
71907;BME280;59781;52.090;5.030;2022-12-18T13:31:00;102259.06;;;-0.97;81.31
71907;BME280;59781;52.090;5.030;2022-12-18T13:38:47;102252.19;;;-0.80;80.72
71907;BME280;59781;52.090;5.030;2022-12-18T13:44:36;102247.31;;;-0.69;81.17
71907;BME280;59781;52.090;5.030;2022-12-18T13:47:31;102237.72;;;-0.72;81.45
71907;BME280;59781;52.090;5.030;2022-12-18T13:53:59;102233.91;;;-0.65;80.97
71907;BME280;59781;52.090;5.030;2022-12-18T13:56:31;102220.47;;;-0.60;80.01
71907;BME280;59781;52.090;5.030;2022-12-18T13:59:42;102217.25;;;-0.46;79.98
71907;BME280;59781;52.090;5.030;2022-12-18T14:03:21;102220.47;;;-0.60;80.31
71907;BME280;59781;52.090;5.030;2022-12-18T14:06:06;102215.06;;;-0.57;80.36
71907;BME280;59781;52.090;5.030;2022-12-18T14:09:25;102221.28;;;-0.58;80.97
71907;BME280;59781;52.090;5.030;2022-12-18T14:11:55;102212.44;;;-0.57;80.98
71907;BME280;59781;52.090;5.030;2022-12-18T14:14:47;102219.44;;;-0.56;81.22
71907;BME280;59781;52.090;5.030;2022-12-18T14:17:16;102209.41;;;-0.70;81.60
71907;BME280;59781;52.090;5.030;2022-12-18T14:19:49;102204.28;;;-0.73;82.07
71907;BME280;59781;52.090;5.030;2022-12-18T14:23:35;102195.47;;;-0.53;80.62
71907;BME280;59781;52.090;5.030;2022-12-18T14:26:30;102189.88;;;-0.66;81.01
71907;BME280;59781;52.090;5.030;2022-12-18T14:34:37;102181.38;;;-0.53;80.39
71907;BME280;59781;52.090;5.030;2022-12-18T14:37:03;102179.00;;;-0.39;80.29
71907;BME280;59781;52.090;5.030;2022-12-18T14:39:30;102191.03;;;-0.32;79.81
71907;BME280;59781;52.090;5.030;2022-12-18T14:41:55;102190.56;;;-0.42;79.47
71907;BME280;59781;52.090;5.030;2022-12-18T14:44:21;102181.72;;;-0.61;81.03
71907;BME280;59781;52.090;5.030;2022-12-18T14:46:50;102189.38;;;-0.35;80.35
71907;BME280;59781;52.090;5.030;2022-12-18T14:49:33;102189.47;;;-0.36;79.34
71907;BME280;59781;52.090;5.030;2022-12-18T14:52:03;102186.06;;;-0.40;78.97
71907;BME280;59781;52.090;5.030;2022-12-18T14:54:35;102179.41;;;-0.48;80.00
71907;BME280;59781;52.090;5.030;2022-12-18T14:57:06;102167.75;;;-0.44;80.45
71907;BME280;59781;52.090;5.030;2022-12-18T15:00:06;102157.38;;;-0.49;79.88
71907;BME280;59781;52.090;5.030;2022-12-18T15:02:40;102161.75;;;-0.48;80.04
71907;BME280;59781;52.090;5.030;2022-12-18T15:07:49;102153.38;;;-0.18;79.45
71907;BME280;59781;52.090;5.030;2022-12-18T15:10:24;102165.66;;;-0.56;80.00
71907;BME280;59781;52.090;5.030;2022-12-18T15:13:07;102155.84;;;-0.34;79.08
71907;BME280;59781;52.090;5.030;2022-12-18T15:20:46;102148.81;;;-0.35;79.01
71907;BME280;59781;52.090;5.030;2022-12-18T15:24:24;102131.13;;;-0.53;79.97
71907;BME280;59781;52.090;5.030;2022-12-18T15:27:56;102144.28;;;-0.52;79.24
71907;BME280;59781;52.090;5.030;2022-12-18T15:30:24;102128.41;;;-0.52;78.72
71907;BME280;59781;52.090;5.030;2022-12-18T15:32:52;102125.63;;;-0.69;80.35
71907;BME280;59781;52.090;5.030;2022-12-18T15:36:03;102123.78;;;-0.47;79.79
71907;BME280;59781;52.090;5.030;2022-12-18T15:38:40;102134.81;;;-0.37;79.18
71907;BME280;59781;52.090;5.030;2022-12-18T15:41:13;102129.06;;;-0.47;79.40
71907;BME280;59781;52.090;5.030;2022-12-18T15:43:41;102137.09;;;-0.30;78.53
71907;BME280;59781;52.090;5.030;2022-12-18T15:46:18;102133.03;;;-0.37;78.20
71907;BME280;59781;52.090;5.030;2022-12-18T15:48:48;102121.59;;;-0.57;79.00
71907;BME280;59781;52.090;5.030;2022-12-18T15:51:21;102122.53;;;-0.40;78.76
71907;BME280;59781;52.090;5.030;2022-12-18T15:53:54;102111.28;;;-0.24;77.91
71907;BME280;59781;52.090;5.030;2022-12-18T15:56:21;102121.69;;;-0.40;78.38
71907;BME280;59781;52.090;5.030;2022-12-18T16:03:17;102102.75;;;-0.31;78.05
71907;BME280;59781;52.090;5.030;2022-12-18T16:05:43;102100.47;;;-0.39;78.56
71907;BME280;59781;52.090;5.030;2022-12-18T16:08:09;102095.25;;;-0.21;77.90
71907;BME280;59781;52.090;5.030;2022-12-18T16:10:34;102086.78;;;-0.11;77.38
71907;BME280;59781;52.090;5.030;2022-12-18T16:13:00;102079.16;;;-0.17;77.21
71907;BME280;59781;52.090;5.030;2022-12-18T16:15:26;102076.00;;;-0.06;77.21
71907;BME280;59781;52.090;5.030;2022-12-18T16:17:52;102073.13;;;-0.20;77.59
71907;BME280;59781;52.090;5.030;2022-12-18T16:20:21;102071.00;;;-0.12;77.33
71907;BME280;59781;52.090;5.030;2022-12-18T16:22:48;102066.19;;;-0.04;77.27
71907;BME280;59781;52.090;5.030;2022-12-18T16:25:47;102069.06;;;-0.27;78.01
71907;BME280;59781;52.090;5.030;2022-12-18T16:28:13;102075.56;;;-0.53;78.96
71907;BME280;59781;52.090;5.030;2022-12-18T16:30:39;102082.50;;;-0.13;77.80
71907;BME280;59781;52.090;5.030;2022-12-18T16:37:14;102043.81;;;-0.16;77.33
71907;BME280;59781;52.090;5.030;2022-12-18T16:39:41;102058.41;;;-0.07;76.88
71907;BME280;59781;52.090;5.030;2022-12-18T16:42:16;102056.25;;;0.01;76.87
71907;BME280;59781;52.090;5.030;2022-12-18T16:45:17;102047.16;;;-0.12;77.16
71907;BME280;59781;52.090;5.030;2022-12-18T16:47:44;102042.50;;;0.29;76.34
71907;BME280;59781;52.090;5.030;2022-12-18T16:51:20;102050.19;;;0.16;75.73
71907;BME280;59781;52.090;5.030;2022-12-18T16:54:30;102045.50;;;0.04;76.22
71907;BME280;59781;52.090;5.030;2022-12-18T16:56:58;102046.97;;;0.10;76.63
71907;BME280;59781;52.090;5.030;2022-12-18T16:59:25;102041.91;;;0.05;76.65
71907;BME280;59781;52.090;5.030;2022-12-18T17:01:52;102030.72;;;0.17;76.47
71907;BME280;59781;52.090;5.030;2022-12-18T17:06:12;102033.03;;;0.06;76.96
71907;BME280;59781;52.090;5.030;2022-12-18T17:10:18;102043.84;;;0.20;76.81
71907;BME280;59781;52.090;5.030;2022-12-18T17:12:44;102046.69;;;0.16;76.69
71907;BME280;59781;52.090;5.030;2022-12-18T17:16:22;102038.78;;;-0.03;77.11
71907;BME280;59781;52.090;5.030;2022-12-18T17:24:16;102030.03;;;0.14;76.87
71907;BME280;59781;52.090;5.030;2022-12-18T17:26:42;102030.53;;;0.03;76.94
71907;BME280;59781;52.090;5.030;2022-12-18T17:29:27;102028.78;;;0.21;77.18
71907;BME280;59781;52.090;5.030;2022-12-18T17:31:53;102028.53;;;0.08;77.54
71907;BME280;59781;52.090;5.030;2022-12-18T17:34:18;102020.53;;;0.27;76.30
71907;BME280;59781;52.090;5.030;2022-12-18T17:36:46;102031.13;;;0.27;76.15
71907;BME280;59781;52.090;5.030;2022-12-18T17:39:16;102023.94;;;0.29;76.49
71907;BME280;59781;52.090;5.030;2022-12-18T17:41:44;102034.63;;;0.10;77.02
71907;BME280;59781;52.090;5.030;2022-12-18T17:44:11;102025.81;;;0.27;77.15
71907;BME280;59781;52.090;5.030;2022-12-18T17:46:36;102030.91;;;0.32;76.45
71907;BME280;59781;52.090;5.030;2022-12-18T17:50:04;102033.38;;;0.17;76.78
71907;BME280;59781;52.090;5.030;2022-12-18T17:52:30;102030.72;;;0.17;76.70
71907;BME280;59781;52.090;5.030;2022-12-18T17:55:01;102023.34;;;0.24;76.47
71907;BME280;59781;52.090;5.030;2022-12-18T17:57:27;102028.00;;;0.19;76.77
71907;BME280;59781;52.090;5.030;2022-12-18T17:59:53;102033.84;;;0.25;76.77
71907;BME280;59781;52.090;5.030;2022-12-18T18:02:18;102019.00;;;0.40;76.17
71907;BME280;59781;52.090;5.030;2022-12-18T18:04:44;102010.66;;;0.48;75.86
71907;BME280;59781;52.090;5.030;2022-12-18T18:07:10;102015.00;;;0.49;75.69
71907;BME280;59781;52.090;5.030;2022-12-18T18:09:35;102011.81;;;0.42;76.08
71907;BME280;59781;52.090;5.030;2022-12-18T18:12:02;102007.06;;;0.66;75.22
71907;BME280;59781;52.090;5.030;2022-12-18T18:14:48;102009.63;;;0.33;76.39
71907;BME280;59781;52.090;5.030;2022-12-18T18:18:52;102006.38;;;0.45;75.97
71907;BME280;59781;52.090;5.030;2022-12-18T18:29:08;102018.19;;;0.38;75.65
71907;BME280;59781;52.090;5.030;2022-12-18T18:31:40;102009.25;;;0.58;75.42
71907;BME280;59781;52.090;5.030;2022-12-18T18:34:07;102007.22;;;0.63;74.69
71907;BME280;59781;52.090;5.030;2022-12-18T18:36:38;102001.34;;;0.39;75.53
71907;BME280;59781;52.090;5.030;2022-12-18T18:39:04;102001.75;;;0.66;74.61
71907;BME280;59781;52.090;5.030;2022-12-18T18:41:29;101996.63;;;0.63;74.80
71907;BME280;59781;52.090;5.030;2022-12-18T18:43:56;102003.75;;;0.78;74.20
71907;BME280;59781;52.090;5.030;2022-12-18T18:46:24;101996.06;;;0.56;74.78
71907;BME280;59781;52.090;5.030;2022-12-18T18:48:50;101993.25;;;0.77;74.46
71907;BME280;59781;52.090;5.030;2022-12-18T18:51:17;101998.81;;;0.55;74.75
71907;BME280;59781;52.090;5.030;2022-12-18T18:53:46;101999.75;;;0.54;74.99
71907;BME280;59781;52.090;5.030;2022-12-18T18:57:37;101988.97;;;0.74;74.69
71907;BME280;59781;52.090;5.030;2022-12-18T19:01:16;101989.13;;;0.54;75.23
71907;BME280;59781;52.090;5.030;2022-12-18T19:03:44;101987.97;;;0.60;75.42
71907;BME280;59781;52.090;5.030;2022-12-18T19:06:59;101988.75;;;0.79;74.82
71907;BME280;59781;52.090;5.030;2022-12-18T19:10:39;101983.66;;;0.92;74.53
71907;BME280;59781;52.090;5.030;2022-12-18T19:13:11;101998.41;;;0.80;75.91
71907;BME280;59781;52.090;5.030;2022-12-18T19:16:01;101982.44;;;0.64;77.87
71907;BME280;59781;52.090;5.030;2022-12-18T19:18:57;102004.66;;;0.79;80.01
71907;BME280;59781;52.090;5.030;2022-12-18T19:21:24;102007.41;;;0.60;81.86
71907;BME280;59781;52.090;5.030;2022-12-18T19:23:51;102005.34;;;0.82;82.54
71907;BME280;59781;52.090;5.030;2022-12-18T19:26:18;102027.47;;;0.47;84.03
71907;BME280;59781;52.090;5.030;2022-12-18T19:28:46;102006.75;;;0.55;84.18
71907;BME280;59781;52.090;5.030;2022-12-18T19:31:13;102009.94;;;0.44;85.04
71907;BME280;59781;52.090;5.030;2022-12-18T19:33:43;102010.50;;;0.51;86.19
71907;BME280;59781;52.090;5.030;2022-12-18T19:36:18;102005.13;;;0.52;86.18
71907;BME280;59781;52.090;5.030;2022-12-18T19:38:46;101998.97;;;0.69;86.41
71907;BME280;59781;52.090;5.030;2022-12-18T19:45:32;101998.72;;;0.74;87.49
71907;BME280;59781;52.090;5.030;2022-12-18T19:52:20;101995.28;;;0.37;90.41
71907;BME280;59781;52.090;5.030;2022-12-18T19:54:46;101997.72;;;0.59;89.72
71907;BME280;59781;52.090;5.030;2022-12-18T19:57:12;101989.06;;;0.73;89.93
71907;BME280;59781;52.090;5.030;2022-12-18T19:59:37;101996.44;;;0.49;91.07
71907;BME280;59781;52.090;5.030;2022-12-18T20:02:03;101991.78;;;0.54;91.62
71907;BME280;59781;52.090;5.030;2022-12-18T20:04:29;102003.31;;;0.36;91.93
71907;BME280;59781;52.090;5.030;2022-12-18T20:06:56;101989.59;;;0.62;92.04
71907;BME280;59781;52.090;5.030;2022-12-18T20:09:22;101994.81;;;0.46;92.06
71907;BME280;59781;52.090;5.030;2022-12-18T20:11:48;102006.66;;;0.56;92.57
71907;BME280;59781;52.090;5.030;2022-12-18T20:14:14;102003.00;;;0.24;93.55
71907;BME280;59781;52.090;5.030;2022-12-18T20:16:41;102001.59;;;0.35;94.47
71907;BME280;59781;52.090;5.030;2022-12-18T20:19:07;101998.72;;;0.56;93.85
71907;BME280;59781;52.090;5.030;2022-12-18T20:21:35;101978.63;;;0.52;94.72
71907;BME280;59781;52.090;5.030;2022-12-18T20:24:01;101984.38;;;0.43;95.10
71907;BME280;59781;52.090;5.030;2022-12-18T20:26:27;101987.59;;;0.50;95.61
71907;BME280;59781;52.090;5.030;2022-12-18T20:28:54;101982.50;;;0.45;96.08
71907;BME280;59781;52.090;5.030;2022-12-18T20:31:20;101969.72;;;0.36;95.53
71907;BME280;59781;52.090;5.030;2022-12-18T20:33:47;101975.28;;;0.32;96.86
71907;BME280;59781;52.090;5.030;2022-12-18T20:36:15;101957.13;;;0.41;96.92
71907;BME280;59781;52.090;5.030;2022-12-18T20:38:47;101961.47;;;0.25;97.40
71907;BME280;59781;52.090;5.030;2022-12-18T20:45:33;101965.69;;;0.12;99.07
71907;BME280;59781;52.090;5.030;2022-12-18T20:51:59;101959.03;;;0.38;99.46
71907;BME280;59781;52.090;5.030;2022-12-18T20:54:27;101954.28;;;0.27;99.62
71907;BME280;59781;52.090;5.030;2022-12-18T20:56:54;101948.53;;;0.19;100.00
71907;BME280;59781;52.090;5.030;2022-12-18T20:59:20;101930.06;;;0.35;100.00
71907;BME280;59781;52.090;5.030;2022-12-18T21:01:48;101935.34;;;0.52;99.80
71907;BME280;59781;52.090;5.030;2022-12-18T21:04:14;101925.78;;;0.32;100.00
71907;BME280;59781;52.090;5.030;2022-12-18T21:10:36;101910.97;;;0.45;100.00
71907;BME280;59781;52.090;5.030;2022-12-18T21:13:01;101895.75;;;0.49;100.00
71907;BME280;59781;52.090;5.030;2022-12-18T21:15:27;101903.94;;;0.44;100.00
71907;BME280;59781;52.090;5.030;2022-12-18T21:17:53;101905.66;;;0.45;100.00
71907;BME280;59781;52.090;5.030;2022-12-18T21:20:53;101907.31;;;0.31;100.00
71907;BME280;59781;52.090;5.030;2022-12-18T21:23:22;101901.13;;;0.47;100.00
71907;BME280;59781;52.090;5.030;2022-12-18T23:50:02;101682.63;;;1.14;100.00
71907;BME280;59781;52.090;5.030;2022-12-18T23:52:47;101681.31;;;1.22;100.00
71907;BME280;59781;52.090;5.030;2022-12-18T23:55:12;101672.19;;;1.41;100.00
